Time;durP1;ratioP1;P1;durP2;ratioP2;P2;SDS_P1;SDS_P2;PMS_P1;PMS_P2;Temp;Humidity;BMP_temperature;BMP_pressure;BME280_temperature;BME280_humidity;BME280_pressure;Samples;Min_cycle;Max_cycle;Signal;HPM_P1;HPM_P2
2023/04/15 00:00:29;;;;;;;11.80;7.70;;;9.80;99.90;;;;;;5009642;28;20599;-76
2023/04/15 00:02:55;;;;;;;10.50;7.63;;;9.80;99.90;;;;;;5012743;28;20433;-76
2023/04/15 00:05:21;;;;;;;8.83;6.97;;;9.80;99.90;;;;;;5010433;28;20399;-76
2023/04/15 00:07:46;;;;;;;9.17;7.10;;;9.80;99.90;;;;;;5020181;28;20194;-76
2023/04/15 00:10:13;;;;;;;8.53;6.53;;;9.80;99.90;;;;;;5021684;28;20804;-76
2023/04/15 00:12:40;;;;;;;10.13;7.20;;;9.80;99.90;;;;;;5012739;28;20269;-77
2023/04/15 00:15:07;;;;;;;7.77;6.97;;;9.80;99.90;;;;;;5014799;28;20429;-77
2023/04/15 00:17:33;;;;;;;12.40;8.20;;;9.80;99.90;;;;;;5033592;28;20409;-77
2023/04/15 00:19:59;;;;;;;10.20;7.63;;;9.80;99.90;;;;;;5005834;28;20472;-76
2023/04/15 00:22:26;;;;;;;8.27;6.27;;;9.70;99.90;;;;;;5015011;28;21211;-77
2023/04/15 00:24:53;;;;;;;8.57;7.13;;;9.70;99.90;;;;;;5003597;28;20194;-76
2023/04/15 00:27:19;;;;;;;8.73;7.53;;;9.70;99.90;;;;;;5011899;28;20428;-76
2023/04/15 00:29:44;;;;;;;8.80;7.30;;;9.60;99.90;;;;;;5024655;28;20475;-76
2023/04/15 00:32:10;;;;;;;7.27;6.57;;;9.50;99.90;;;;;;5023144;28;20837;-75
2023/04/15 00:34:36;;;;;;;9.57;7.63;;;9.40;99.90;;;;;;5020543;28;20195;-77
2023/04/15 00:37:02;;;;;;;11.37;7.43;;;9.20;99.90;;;;;;5012605;28;20183;-76
2023/04/15 00:39:27;;;;;;;10.07;9.07;;;9.10;99.90;;;;;;5016167;28;20211;-76
2023/04/15 00:41:54;;;;;;;13.73;8.73;;;9.10;99.90;;;;;;5009040;28;20433;-76
2023/04/15 00:44:20;;;;;;;10.70;9.00;;;9.20;99.90;;;;;;5012314;28;20180;-76
2023/04/15 00:46:47;;;;;;;12.80;8.93;;;9.20;99.90;;;;;;5014234;28;20417;-76
2023/04/15 00:49:13;;;;;;;10.10;9.10;;;9.20;99.90;;;;;;5021463;28;20718;-76
2023/04/15 00:51:39;;;;;;;11.73;9.67;;;9.10;99.90;;;;;;5010916;28;20461;-77
2023/04/15 00:54:05;;;;;;;11.93;9.20;;;9.20;99.90;;;;;;5015698;28;20593;-77
2023/04/15 00:56:35;;;;;;;14.23;9.67;;;9.20;99.90;;;;;;5009415;28;20978;-77
2023/04/15 00:59:01;;;;;;;12.80;9.60;;;9.20;99.90;;;;;;5014669;28;20832;-77
2023/04/15 01:01:28;;;;;;;11.03;9.93;;;9.20;99.90;;;;;;5008254;28;20448;-77
2023/04/15 01:03:57;;;;;;;12.97;10.80;;;9.20;99.90;;;;;;5011861;28;20841;-76
2023/04/15 01:06:23;;;;;;;11.73;10.10;;;9.20;99.90;;;;;;5015088;28;21335;-77
2023/04/15 01:08:49;;;;;;;11.50;10.30;;;9.10;99.90;;;;;;5009188;28;20433;-76
2023/04/15 01:11:16;;;;;;;14.73;10.60;;;9.10;99.90;;;;;;5006753;28;20507;-77
2023/04/15 01:13:42;;;;;;;14.93;10.23;;;9.00;99.90;;;;;;5020677;28;20985;-77
2023/04/15 01:16:09;;;;;;;12.53;9.73;;;9.10;99.90;;;;;;5016214;28;20429;-76
2023/04/15 01:18:36;;;;;;;11.27;10.17;;;9.10;99.90;;;;;;5015888;28;20473;-76
2023/04/15 01:21:04;;;;;;;12.87;10.83;;;9.10;99.90;;;;;;5018584;28;20437;-76
2023/04/15 01:23:30;;;;;;;11.70;10.50;;;9.30;99.90;;;;;;5016635;28;20951;-76
2023/04/15 01:25:58;;;;;;;14.77;10.70;;;9.10;99.90;;;;;;5014578;28;20429;-77
2023/04/15 01:28:24;;;;;;;13.93;10.20;;;8.90;99.90;;;;;;5016897;28;20433;-76
2023/04/15 01:30:50;;;;;;;11.00;9.47;;;9.10;99.90;;;;;;5014021;28;20481;-76
2023/04/15 01:33:16;;;;;;;11.33;10.23;;;9.10;99.90;;;;;;5013972;28;20453;-76
2023/04/15 01:35:43;;;;;;;14.43;10.13;;;9.10;99.90;;;;;;5014252;28;20422;-75
2023/04/15 01:38:10;;;;;;;10.97;9.97;;;9.10;99.90;;;;;;5005403;28;20505;-76
2023/04/15 01:40:35;;;;;;;10.97;9.77;;;9.10;99.90;;;;;;5009845;28;21294;-75
2023/04/15 01:43:02;;;;;;;12.50;9.90;;;9.00;99.90;;;;;;5005094;28;20501;-75
2023/04/15 01:45:28;;;;;;;13.50;9.53;;;9.00;99.90;;;;;;5022346;28;20210;-75
2023/04/15 01:47:54;;;;;;;13.57;10.30;;;8.90;99.90;;;;;;5016929;28;20911;-76
2023/04/15 01:50:20;;;;;;;10.70;9.57;;;8.90;99.90;;;;;;5010481;28;20442;-76
2023/04/15 01:52:47;;;;;;;10.87;9.80;;;8.80;99.90;;;;;;5009455;28;20465;-77
2023/04/15 01:55:13;;;;;;;12.47;10.17;;;8.90;99.90;;;;;;5017004;28;20426;-75
2023/04/15 01:57:39;;;;;;;10.87;9.70;;;8.70;99.90;;;;;;5013992;28;20495;-75
2023/04/15 02:00:06;;;;;;;10.50;9.50;;;8.90;99.90;;;;;;5012239;28;20560;-76
2023/04/15 02:02:33;;;;;;;11.17;10.07;;;8.70;99.90;;;;;;5012204;28;20509;-75
2023/04/15 02:04:58;;;;;;;13.53;10.40;;;8.50;99.90;;;;;;5010133;28;21045;-77
2023/04/15 02:07:27;;;;;;;14.37;10.17;;;8.70;99.90;;;;;;5015052;28;20419;-77
2023/04/15 02:09:53;;;;;;;11.37;10.10;;;8.70;99.90;;;;;;5008281;28;20257;-76
2023/04/15 02:12:19;;;;;;;10.90;9.73;;;8.70;99.90;;;;;;5014918;28;20520;-76
2023/04/15 02:14:45;;;;;;;11.87;10.13;;;8.60;99.90;;;;;;5016328;28;20262;-77
2023/04/15 02:17:10;;;;;;;11.10;9.70;;;8.50;99.90;;;;;;5024053;28;20568;-76
2023/04/15 02:19:36;;;;;;;10.87;9.77;;;8.30;99.90;;;;;;5018551;28;20469;-76
2023/04/15 02:22:02;;;;;;;12.87;10.00;;;8.40;99.90;;;;;;5022166;28;20183;-77
2023/04/15 02:24:29;;;;;;;10.40;9.30;;;8.40;99.90;;;;;;5014013;28;20768;-76
2023/04/15 02:26:56;;;;;;;10.77;9.77;;;8.30;99.90;;;;;;5016156;28;20186;-76
2023/04/15 02:29:22;;;;;;;10.70;9.57;;;8.30;99.90;;;;;;5020237;28;20421;-76
2023/04/15 02:31:48;;;;;;;12.63;9.93;;;8.20;99.90;;;;;;5015074;28;20445;-76
2023/04/15 02:34:14;;;;;;;11.27;10.13;;;8.30;99.90;;;;;;5019337;28;20424;-76
2023/04/15 02:36:40;;;;;;;13.43;10.40;;;8.30;99.90;;;;;;5014668;28;20935;-76
2023/04/15 02:39:06;;;;;;;11.77;10.13;;;8.20;99.90;;;;;;5011072;28;20528;-76
2023/04/15 02:41:31;;;;;;;12.20;10.47;;;8.30;99.90;;;;;;5012366;28;20286;-76
2023/04/15 02:43:57;;;;;;;11.60;10.40;;;8.40;99.90;;;;;;5011742;28;20472;-76
2023/04/15 02:46:23;;;;;;;13.07;11.20;;;8.20;99.90;;;;;;5003408;28;20262;-76
2023/04/15 02:48:49;;;;;;;13.10;11.23;;;8.20;99.90;;;;;;5011273;28;20195;-76
2023/04/15 02:51:21;;;;;;;11.53;10.33;;;8.30;99.90;;;;;;5023224;28;20604;-77
2023/04/15 02:53:47;;;;;;;13.63;10.40;;;8.20;99.90;;;;;;5015770;28;20422;-76
2023/04/15 02:56:14;;;;;;;15.43;13.83;;;8.10;99.90;;;;;;5017260;28;20436;-77
2023/04/15 02:58:41;;;;;;;12.53;11.20;;;8.10;99.90;;;;;;5021401;28;20908;-77
2023/04/15 03:01:07;;;;;;;13.00;11.23;;;8.10;99.90;;;;;;5013579;28;20442;-76
2023/04/15 03:03:34;;;;;;;14.00;10.87;;;7.90;99.90;;;;;;5020765;28;20433;-76
2023/04/15 03:05:59;;;;;;;18.27;12.43;;;8.00;99.90;;;;;;5014783;28;20506;-76
2023/04/15 03:08:25;;;;;;;13.73;11.20;;;8.00;99.90;;;;;;5024604;28;20508;-76
2023/04/15 03:10:51;;;;;;;13.80;11.33;;;8.00;99.90;;;;;;5006248;28;20211;-77
2023/04/15 03:13:18;;;;;;;14.73;12.73;;;8.10;99.90;;;;;;5007173;28;21102;-76
2023/04/15 03:15:46;;;;;;;12.80;11.30;;;8.10;99.90;;;;;;5010590;28;20430;-77
2023/04/15 03:18:12;;;;;;;14.17;12.37;;;8.00;99.90;;;;;;5014791;28;20465;-76
2023/04/15 03:20:37;;;;;;;12.77;11.47;;;7.90;99.90;;;;;;5012063;28;20449;-76
2023/04/15 03:23:03;;;;;;;12.37;11.17;;;8.00;99.90;;;;;;5012672;28;20191;-77
2023/04/15 03:25:28;;;;;;;15.90;12.30;;;8.00;99.90;;;;;;5012273;28;20183;-76
2023/04/15 03:27:54;;;;;;;13.33;11.80;;;7.80;99.90;;;;;;5016409;28;20560;-77
2023/04/15 03:30:20;;;;;;;13.20;11.47;;;7.90;99.90;;;;;;5015573;28;20198;-76
2023/04/15 03:32:45;;;;;;;15.07;12.60;;;7.80;99.90;;;;;;5017091;28;20191;-76
2023/04/15 03:35:11;;;;;;;15.10;13.40;;;7.90;99.90;;;;;;5024744;28;20313;-76
2023/04/15 03:37:37;;;;;;;13.10;11.77;;;8.00;99.90;;;;;;5006549;28;20187;-76
2023/04/15 03:40:03;;;;;;;15.10;12.73;;;7.90;99.90;;;;;;5010660;28;21179;-77
2023/04/15 03:42:28;;;;;;;14.70;13.07;;;7.90;99.90;;;;;;5019439;28;20590;-76
2023/04/15 03:44:54;;;;;;;14.40;11.47;;;8.10;99.90;;;;;;5015858;28;20183;-76
2023/04/15 03:47:20;;;;;;;13.33;11.70;;;8.10;99.90;;;;;;5018875;28;20183;-76
2023/04/15 03:49:46;;;;;;;13.17;11.77;;;7.90;99.90;;;;;;5025730;28;21626;-76
2023/04/15 03:52:11;;;;;;;13.07;11.77;;;7.80;99.90;;;;;;5011081;28;20184;-76
2023/04/15 03:54:37;;;;;;;13.60;11.20;;;8.10;99.90;;;;;;5010625;28;20183;-76
2023/04/15 03:57:03;;;;;;;13.60;11.67;;;8.00;99.90;;;;;;5011572;28;20194;-76
2023/04/15 03:59:28;;;;;;;13.90;11.33;;;7.90;99.90;;;;;;5010566;28;20591;-76
2023/04/15 04:01:54;;;;;;;16.30;12.33;;;8.00;99.90;;;;;;5011223;28;20276;-76
2023/04/15 04:04:19;;;;;;;13.77;12.07;;;8.00;99.90;;;;;;5010652;28;20503;-76
2023/04/15 04:06:45;;;;;;;15.47;11.50;;;8.10;99.90;;;;;;5009419;28;20187;-76
2023/04/15 04:09:11;;;;;;;12.73;11.50;;;7.90;99.90;;;;;;5008309;28;20194;-77
2023/04/15 04:11:36;;;;;;;13.27;11.83;;;8.00;99.90;;;;;;4995242;28;20211;-77
2023/04/15 04:14:02;;;;;;;15.03;10.93;;;7.90;99.90;;;;;;4989710;28;20188;-76
2023/04/15 04:16:28;;;;;;;13.67;11.07;;;7.90;99.90;;;;;;4990068;28;20206;-76
2023/04/15 04:18:53;;;;;;;12.73;10.73;;;7.90;99.90;;;;;;4991013;28;20254;-76
2023/04/15 04:21:20;;;;;;;12.63;11.27;;;8.00;99.90;;;;;;4990849;28;20203;-77
2023/04/15 04:23:46;;;;;;;13.83;11.47;;;7.70;99.90;;;;;;5002164;28;20187;-76
2023/04/15 04:26:11;;;;;;;13.60;11.20;;;7.90;99.90;;;;;;5007761;28;20441;-76
2023/04/15 04:28:39;;;;;;;12.67;10.77;;;7.70;99.90;;;;;;5010019;28;20187;-76
2023/04/15 04:31:06;;;;;;;12.23;10.80;;;7.70;99.90;;;;;;5009874;28;20272;-77
2023/04/15 04:33:32;;;;;;;16.03;11.90;;;7.90;99.90;;;;;;5010309;28;20438;-77
2023/04/15 04:35:58;;;;;;;11.83;10.60;;;7.70;99.90;;;;;;5010433;28;20492;-76
2023/04/15 04:38:23;;;;;;;16.90;13.07;;;7.70;99.90;;;;;;5010154;28;20466;-76
2023/04/15 04:40:49;;;;;;;12.77;11.40;;;7.70;99.90;;;;;;5010051;28;20605;-77
2023/04/15 04:43:15;;;;;;;14.90;12.43;;;7.70;99.90;;;;;;5025621;28;20224;-76
2023/04/15 04:45:41;;;;;;;12.40;10.87;;;7.70;99.90;;;;;;5010396;28;20179;-76
2023/04/15 04:48:08;;;;;;;14.00;12.50;;;7.60;99.90;;;;;;5010035;28;20176;-76
2023/04/15 04:50:35;;;;;;;13.73;12.00;;;7.60;99.90;;;;;;5009863;28;20803;-76
2023/04/15 04:53:01;;;;;;;12.30;11.03;;;7.60;99.90;;;;;;5004778;28;20428;-76
2023/04/15 04:55:27;;;;;;;13.83;12.33;;;7.80;99.90;;;;;;5007006;28;20492;-76
2023/04/15 04:57:52;;;;;;;13.40;11.27;;;7.60;99.90;;;;;;5001117;28;20269;-76
2023/04/15 05:00:19;;;;;;;14.10;12.60;;;7.60;99.90;;;;;;4993423;28;20473;-77
2023/04/15 05:02:45;;;;;;;12.33;10.67;;;7.80;99.90;;;;;;4989570;28;20183;-76
2023/04/15 05:05:11;;;;;;;12.90;11.50;;;7.60;99.90;;;;;;4990464;28;20426;-77
2023/04/15 05:07:38;;;;;;;12.20;10.90;;;7.60;99.90;;;;;;4981865;28;20418;-76
2023/04/15 05:10:04;;;;;;;12.40;11.00;;;7.60;99.90;;;;;;5009844;28;20442;-77
2023/04/15 05:12:31;;;;;;;16.10;11.50;;;7.70;99.90;;;;;;5011583;28;20450;-76
2023/04/15 05:14:56;;;;;;;18.00;12.60;;;7.60;99.90;;;;;;4978194;28;20434;-76
2023/04/15 05:17:22;;;;;;;12.67;11.37;;;7.60;99.90;;;;;;5010298;28;20422;-76
2023/04/15 05:19:48;;;;;;;11.60;10.40;;;7.70;99.90;;;;;;5008566;28;20219;-77
2023/04/15 05:22:13;;;;;;;16.30;11.40;;;7.70;99.90;;;;;;5008990;28;20274;-76
2023/04/15 05:24:39;;;;;;;12.07;10.73;;;7.80;99.90;;;;;;5009675;28;20179;-77
2023/04/15 05:27:05;;;;;;;13.57;11.30;;;7.70;99.90;;;;;;5009756;28;20652;-78
2023/04/15 05:29:31;;;;;;;12.30;11.10;;;7.70;99.90;;;;;;5024956;28;20197;-76
2023/04/15 05:31:56;;;;;;;12.60;11.27;;;7.50;99.90;;;;;;5009979;28;20190;-76
2023/04/15 05:34:22;;;;;;;13.03;11.63;;;7.70;99.90;;;;;;5009702;28;20726;-76
2023/04/15 05:36:48;;;;;;;16.50;11.70;;;7.80;99.90;;;;;;5009596;28;20186;-76
2023/04/15 05:39:13;;;;;;;12.57;11.30;;;7.70;99.90;;;;;;5008576;28;20336;-78
2023/04/15 05:41:39;;;;;;;14.20;12.43;;;7.70;99.90;;;;;;5002583;28;20261;-77
2023/04/15 05:44:05;;;;;;;14.27;12.23;;;7.90;99.90;;;;;;4993094;28;20188;-76
2023/04/15 05:46:31;;;;;;;12.63;11.33;;;7.80;99.90;;;;;;4988933;28;20763;-77
2023/04/15 05:48:57;;;;;;;14.37;12.80;;;7.80;99.90;;;;;;4988640;28;20423;-76
2023/04/15 05:51:23;;;;;;;15.40;12.57;;;7.80;99.90;;;;;;4988673;28;20279;-77
2023/04/15 05:53:48;;;;;;;13.40;12.00;;;7.80;99.90;;;;;;4989990;28;20199;-77
2023/04/15 05:56:14;;;;;;;12.40;11.07;;;7.70;99.90;;;;;;5003852;28;20538;-76
2023/04/15 05:58:40;;;;;;;15.20;12.77;;;7.90;99.90;;;;;;5009295;28;20680;-76
2023/04/15 06:01:06;;;;;;;13.70;12.17;;;7.90;99.90;;;;;;5008126;28;20492;-76
2023/04/15 06:03:32;;;;;;;19.07;13.40;;;7.80;99.90;;;;;;5024708;28;20171;-76
2023/04/15 06:05:58;;;;;;;16.77;13.50;;;8.00;99.90;;;;;;5009929;28;20198;-76
2023/04/15 06:08:23;;;;;;;12.77;11.47;;;7.90;99.90;;;;;;5024194;28;20456;-77
2023/04/15 06:10:49;;;;;;;16.60;13.43;;;7.90;99.90;;;;;;5009320;28;20211;-76
2023/04/15 06:13:15;;;;;;;15.00;13.40;;;8.00;99.90;;;;;;5008535;28;20241;-78
2023/04/15 06:15:41;;;;;;;16.70;14.90;;;8.10;99.90;;;;;;4999440;28;20203;-76
2023/04/15 06:18:07;;;;;;;15.33;13.70;;;8.10;99.90;;;;;;5007754;28;20603;-76
2023/04/15 06:20:33;;;;;;;16.30;14.23;;;8.10;99.90;;;;;;5007993;28;20874;-77
2023/04/15 06:22:59;;;;;;;16.27;13.87;;;8.20;99.90;;;;;;5008100;28;20229;-76
2023/04/15 06:25:25;;;;;;;18.73;14.07;;;8.20;99.90;;;;;;5009366;28;20210;-76
2023/04/15 06:27:50;;;;;;;15.70;14.10;;;8.40;99.90;;;;;;5007934;28;20426;-76
2023/04/15 06:30:16;;;;;;;17.53;15.50;;;8.20;99.90;;;;;;4991463;28;20286;-76
2023/04/15 06:32:42;;;;;;;19.63;17.17;;;8.30;99.90;;;;;;5009329;28;20203;-76
2023/04/15 06:35:08;;;;;;;18.83;16.27;;;8.30;99.90;;;;;;5008118;28;20648;-77
2023/04/15 06:37:33;;;;;;;23.50;17.30;;;8.40;99.90;;;;;;5003103;28;20202;-76
2023/04/15 06:39:59;;;;;;;18.23;16.33;;;8.40;99.90;;;;;;4990448;28;20463;-76
2023/04/15 06:42:25;;;;;;;20.03;16.03;;;8.50;99.90;;;;;;4989559;28;20263;-76
2023/04/15 06:44:50;;;;;;;17.90;16.10;;;8.50;99.90;;;;;;4989771;28;20187;-76
2023/04/15 06:47:16;;;;;;;17.97;16.07;;;8.40;99.90;;;;;;4996327;28;20421;-76
2023/04/15 06:49:42;;;;;;;19.47;16.57;;;8.40;99.90;;;;;;5008095;28;20627;-76
2023/04/15 06:52:09;;;;;;;16.17;14.47;;;8.50;99.90;;;;;;5009395;28;20859;-76
2023/04/15 06:54:35;;;;;;;15.93;14.20;;;8.60;99.90;;;;;;5012749;28;21306;-76
2023/04/15 06:57:01;;;;;;;14.60;13.00;;;8.60;99.90;;;;;;5012582;28;20550;-76
2023/04/15 06:59:27;;;;;;;17.70;13.30;;;8.70;99.90;;;;;;4996914;28;20502;-76
2023/04/15 07:01:53;;;;;;;17.87;13.40;;;8.70;99.90;;;;;;5016987;28;20180;-77
2023/04/15 07:04:19;;;;;;;15.47;13.40;;;8.80;99.90;;;;;;4999614;28;20490;-77
2023/04/15 07:06:45;;;;;;;17.87;14.13;;;8.80;99.90;;;;;;5013702;28;20661;-77
2023/04/15 07:09:11;;;;;;;16.93;13.60;;;8.80;99.90;;;;;;5011475;28;20428;-76
2023/04/15 07:11:37;;;;;;;16.80;13.23;;;8.80;99.90;;;;;;5011923;28;20199;-77
2023/04/15 07:14:02;;;;;;;15.30;13.33;;;9.00;99.90;;;;;;5010994;28;20509;-77
2023/04/15 07:16:28;;;;;;;14.47;12.30;;;8.90;99.90;;;;;;5012424;28;20179;-77
2023/04/15 07:18:54;;;;;;;15.80;14.07;;;8.90;99.90;;;;;;5011577;28;20214;-77
2023/04/15 07:21:20;;;;;;;15.80;13.50;;;9.00;99.90;;;;;;5010716;28;20824;-76
2023/04/15 07:23:46;;;;;;;14.80;13.30;;;9.00;99.90;;;;;;5010418;28;20422;-77
2023/04/15 07:26:12;;;;;;;15.73;13.27;;;9.00;99.90;;;;;;5011909;28;20241;-77
2023/04/15 07:28:37;;;;;;;16.37;13.10;;;9.00;99.90;;;;;;5011077;28;20188;-77
2023/04/15 07:31:03;;;;;;;15.50;12.70;;;9.10;99.90;;;;;;5011646;28;20214;-77
2023/04/15 07:33:29;;;;;;;14.77;12.83;;;9.10;99.90;;;;;;5011822;28;20213;-76
2023/04/15 07:35:54;;;;;;;15.10;12.40;;;9.10;99.90;;;;;;5010634;28;20210;-76
2023/04/15 07:38:20;;;;;;;15.70;12.80;;;9.20;99.90;;;;;;5010187;28;20218;-76
2023/04/15 07:40:47;;;;;;;13.50;12.10;;;9.20;99.90;;;;;;5011296;28;20202;-78
2023/04/15 07:43:13;;;;;;;16.33;13.00;;;9.20;99.90;;;;;;5009452;28;20844;-78
2023/04/15 07:45:38;;;;;;;13.67;12.17;;;9.30;99.90;;;;;;5012006;28;20445;-77
2023/04/15 07:48:05;;;;;;;16.70;12.30;;;9.30;99.90;;;;;;5011502;28;20175;-78
2023/04/15 07:50:31;;;;;;;14.67;12.40;;;9.40;99.90;;;;;;5009101;28;20238;-77
2023/04/15 07:52:57;;;;;;;16.97;12.63;;;9.40;99.90;;;;;;4995621;28;20431;-77
2023/04/15 07:55:23;;;;;;;14.27;11.87;;;9.50;99.90;;;;;;5009627;28;20434;-77
2023/04/15 07:57:49;;;;;;;14.60;11.70;;;9.50;99.90;;;;;;5009771;28;20198;-77
2023/04/15 08:00:15;;;;;;;16.27;12.17;;;9.60;99.90;;;;;;5005801;28;20218;-77
2023/04/15 08:02:45;;;;;;;14.50;11.73;;;9.60;99.90;;;;;;5000524;28;20434;-77
2023/04/15 08:05:12;;;;;;;14.03;10.40;;;9.60;99.90;;;;;;5001249;28;20484;-77
2023/04/15 08:07:38;;;;;;;11.97;9.40;;;9.70;99.90;;;;;;5003533;28;20429;-77
2023/04/15 08:10:05;;;;;;;11.43;10.23;;;9.70;99.90;;;;;;4998881;28;20442;-77
2023/04/15 08:12:30;;;;;;;10.00;8.90;;;9.80;99.90;;;;;;5004628;28;20426;-78
2023/04/15 08:14:56;;;;;;;10.07;8.87;;;9.80;99.90;;;;;;5010765;28;20805;-76
2023/04/15 08:17:22;;;;;;;9.93;8.60;;;9.80;99.90;;;;;;5023165;28;20187;-77
2023/04/15 08:19:48;;;;;;;10.53;7.97;;;9.90;99.90;;;;;;5007246;28;20545;-76
2023/04/15 08:22:14;;;;;;;9.97;8.90;;;10.00;99.90;;;;;;5007994;28;20476;-77
2023/04/15 08:24:40;;;;;;;9.87;8.20;;;10.00;99.90;;;;;;5010186;28;20183;-77
2023/04/15 08:27:07;;;;;;;12.53;8.30;;;10.10;99.90;;;;;;4996895;28;20437;-76
2023/04/15 08:29:33;;;;;;;9.27;8.30;;;10.10;99.90;;;;;;4995212;28;20864;-77
2023/04/15 08:32:00;;;;;;;8.83;7.93;;;10.20;99.90;;;;;;4990176;28;20514;-77
2023/04/15 08:34:26;;;;;;;10.07;9.00;;;10.20;99.90;;;;;;5003686;28;20434;-77
2023/04/15 08:36:52;;;;;;;9.93;8.90;;;10.10;99.90;;;;;;4988206;28;20455;-77
2023/04/15 08:39:17;;;;;;;11.73;8.80;;;10.00;99.90;;;;;;4999787;28;20557;-77
2023/04/15 08:42:04;;;;;;;10.47;8.50;;;10.10;99.90;;;;;;5000272;28;20199;-76
2023/04/15 08:44:33;;;;;;;10.60;8.50;;;10.20;99.90;;;;;;5007058;28;20187;-77
2023/04/15 08:47:02;;;;;;;9.47;8.20;;;10.30;99.90;;;;;;5008261;28;20505;-78
2023/04/15 08:49:28;;;;;;;12.83;8.77;;;10.30;99.90;;;;;;5006024;28;20534;-78
2023/04/15 08:51:57;;;;;;;9.87;8.83;;;10.40;99.90;;;;;;4998253;28;21079;-78
2023/04/15 08:54:26;;;;;;;8.97;8.03;;;10.40;99.90;;;;;;4985809;28;20444;-75
2023/04/15 08:56:53;;;;;;;9.77;7.17;;;10.50;99.90;;;;;;5006206;28;20433;-76
2023/04/15 08:59:20;;;;;;;11.77;7.80;;;10.60;99.90;;;;;;5003205;28;20465;-77
2023/04/15 09:01:47;;;;;;;9.10;7.97;;;10.70;99.90;;;;;;5004022;28;20525;-77
2023/04/15 09:04:13;;;;;;;9.50;8.17;;;10.80;99.90;;;;;;5004807;28;20426;-77
2023/04/15 09:06:40;;;;;;;11.13;8.60;;;10.90;99.90;;;;;;5008240;28;20438;-77
2023/04/15 09:09:06;;;;;;;9.07;8.13;;;11.00;99.90;;;;;;5003693;28;20489;-78
2023/04/15 09:11:31;;;;;;;9.67;8.67;;;10.90;99.90;;;;;;5002032;28;20843;-78
2023/04/15 09:13:57;;;;;;;9.40;8.50;;;10.80;99.90;;;;;;5009351;28;20175;-77
2023/04/15 09:16:23;;;;;;;8.87;7.97;;;10.70;99.90;;;;;;5010621;28;20182;-78
2023/04/15 09:18:49;;;;;;;9.40;8.50;;;10.70;99.90;;;;;;5010681;28;20209;-78
2023/04/15 09:21:16;;;;;;;9.97;9.00;;;10.70;99.90;;;;;;4993714;28;20286;-78
2023/04/15 09:23:59;;;;;;;10.00;8.63;;;10.70;99.90;;;;;;5011069;28;20502;-78
2023/04/15 09:26:36;;;;;;;8.57;7.67;;;10.70;99.90;;;;;;5011390;28;20472;-78
2023/04/15 09:29:12;;;;;;;9.60;8.30;;;10.70;99.90;;;;;;5010862;28;20945;-78
2023/04/15 09:31:57;;;;;;;9.03;8.20;;;10.60;99.90;;;;;;4993846;28;20464;-77
2023/04/15 09:34:35;;;;;;;9.13;8.23;;;10.60;99.90;;;;;;5009349;28;20421;-78
2023/04/15 09:37:01;;;;;;;9.40;8.47;;;10.60;99.90;;;;;;5009314;28;20421;-78
2023/04/15 09:39:27;;;;;;;8.33;7.53;;;10.50;99.90;;;;;;5009033;28;20466;-78
2023/04/15 09:42:06;;;;;;;8.53;7.73;;;10.50;99.90;;;;;;5010383;28;20281;-77
2023/04/15 09:44:31;;;;;;;10.30;9.30;;;10.60;99.90;;;;;;5010022;28;20172;-78
2023/04/15 09:46:57;;;;;;;11.67;10.47;;;10.60;99.90;;;;;;5025748;28;20414;-78
2023/04/15 09:49:23;;;;;;;11.97;10.80;;;10.50;99.90;;;;;;5010175;28;20178;-78
2023/04/15 09:51:49;;;;;;;11.90;10.70;;;10.50;99.90;;;;;;5009306;28;20434;-77
2023/04/15 09:54:20;;;;;;;11.10;10.00;;;10.40;99.90;;;;;;5008784;28;20190;-77
2023/04/15 09:56:46;;;;;;;10.83;9.73;;;10.40;99.90;;;;;;5010245;28;20194;-78
2023/04/15 09:59:11;;;;;;;10.17;9.13;;;10.50;99.90;;;;;;5025121;28;20488;-78
2023/04/15 10:01:39;;;;;;;9.53;8.60;;;10.50;99.90;;;;;;5010033;28;20822;-78
2023/04/15 10:04:05;;;;;;;10.50;9.27;;;10.50;99.90;;;;;;5009724;28;20187;-77
2023/04/15 10:06:31;;;;;;;10.47;9.43;;;10.50;99.90;;;;;;5010244;28;20406;-78
2023/04/15 10:08:58;;;;;;;9.53;8.57;;;10.50;99.90;;;;;;5008973;28;20793;-78
2023/04/15 10:11:27;;;;;;;8.77;7.53;;;10.50;99.90;;;;;;5010152;28;20430;-77
2023/04/15 10:13:54;;;;;;;8.70;7.80;;;10.50;99.90;;;;;;5024352;28;20406;-78
2023/04/15 10:16:21;;;;;;;8.20;7.40;;;10.60;99.90;;;;;;5010047;28;20420;-78
2023/04/15 10:18:53;;;;;;;10.03;9.03;;;10.70;99.90;;;;;;4986712;28;20465;-78
2023/04/15 10:21:21;;;;;;;9.10;7.30;;;10.70;99.90;;;;;;4989126;28;20473;-79
2023/04/15 10:23:47;;;;;;;8.40;7.37;;;10.70;99.90;;;;;;5007338;28;20454;-78
2023/04/15 10:26:14;;;;;;;7.50;6.73;;;10.70;99.90;;;;;;5008688;28;21361;-79
2023/04/15 10:28:43;;;;;;;10.33;7.20;;;10.80;99.90;;;;;;5004448;28;20427;-78
2023/04/15 10:31:13;;;;;;;7.23;6.50;;;10.80;99.90;;;;;;5005395;28;20530;-78
2023/04/15 10:33:41;;;;;;;8.37;6.87;;;10.80;99.90;;;;;;4985083;28;20416;-78
2023/04/15 10:36:07;;;;;;;8.00;7.13;;;10.80;99.90;;;;;;5002673;28;20500;-79
2023/04/15 10:38:41;;;;;;;8.37;7.33;;;10.70;99.90;;;;;;5004186;28;20477;-78
2023/04/15 10:41:14;;;;;;;9.03;6.93;;;10.80;99.90;;;;;;5004767;28;20484;-78
2023/04/15 10:44:01;;;;;;;6.10;5.50;;;10.80;99.90;;;;;;5005133;28;20497;-79
2023/04/15 10:46:40;;;;;;;6.47;5.87;;;10.80;99.90;;;;;;5003029;28;20414;-77
2023/04/15 10:49:10;;;;;;;6.50;5.70;;;10.80;99.90;;;;;;5006538;28;20424;-78
2023/04/15 10:51:40;;;;;;;7.60;6.07;;;10.70;99.90;;;;;;5007998;28;20426;-78
2023/04/15 10:54:24;;;;;;;6.80;6.07;;;10.70;99.90;;;;;;5011839;28;20816;-77
2023/04/15 10:57:05;;;;;;;5.97;5.43;;;10.60;99.90;;;;;;5025407;28;20430;-78
2023/04/15 10:59:32;;;;;;;5.70;5.20;;;10.60;99.90;;;;;;5005542;28;20465;-79
2023/04/15 11:02:06;;;;;;;6.97;6.10;;;10.60;99.90;;;;;;4986342;28;20430;-78
2023/04/15 11:04:51;;;;;;;7.73;6.87;;;10.60;99.90;;;;;;5007839;28;20444;-78
2023/04/15 11:07:53;;;;;;;7.50;6.70;;;10.50;99.90;;;;;;5001715;28;21178;-77
2023/04/15 11:10:25;;;;;;;8.63;5.50;;;10.40;99.90;;;;;;4953179;28;21026;-78
2023/04/15 11:12:59;;;;;;;7.67;6.77;;;10.40;99.90;;;;;;5009936;28;20518;-78
2023/04/15 11:15:44;;;;;;;6.17;5.57;;;10.40;99.90;;;;;;4993488;28;20908;-78
2023/04/15 11:18:16;;;;;;;6.70;6.00;;;10.40;99.90;;;;;;4993461;28;20411;-78
2023/04/15 11:20:44;;;;;;;7.10;6.10;;;10.50;99.90;;;;;;5012484;28;21163;-78
2023/04/15 11:23:11;;;;;;;7.13;6.10;;;10.60;99.90;;;;;;5011110;28;20437;-77
2023/04/15 11:25:36;;;;;;;8.87;6.93;;;10.50;99.90;;;;;;5011681;28;20402;-78
2023/04/15 11:28:03;;;;;;;7.50;6.70;;;10.50;99.90;;;;;;5011192;28;20421;-78
2023/04/15 11:30:32;;;;;;;7.30;6.10;;;10.50;99.90;;;;;;5012708;28;20294;-78
2023/04/15 11:33:06;;;;;;;8.50;7.53;;;10.50;99.90;;;;;;4995049;28;20513;-78
2023/04/15 11:35:31;;;;;;;8.10;7.13;;;10.50;99.90;;;;;;5011280;28;20525;-77
2023/04/15 11:37:57;;;;;;;8.50;7.47;;;10.60;99.90;;;;;;5012142;28;20549;-78
2023/04/15 11:40:26;;;;;;;8.30;7.17;;;10.60;99.90;;;;;;5010337;28;20219;-78
2023/04/15 11:43:08;;;;;;;7.67;6.97;;;10.50;99.90;;;;;;5007505;28;20426;-77
2023/04/15 11:45:47;;;;;;;7.87;7.00;;;10.50;99.90;;;;;;5000966;28;20453;-77
2023/04/15 11:48:13;;;;;;;8.53;7.60;;;10.50;99.90;;;;;;4991797;28;20415;-78
2023/04/15 11:50:40;;;;;;;9.67;7.67;;;10.50;99.90;;;;;;4994353;28;20488;-77
2023/04/15 11:53:07;;;;;;;7.50;6.70;;;10.50;99.90;;;;;;5002533;28;20182;-78
2023/04/15 11:55:49;;;;;;;7.87;6.90;;;10.50;99.90;;;;;;4992119;28;20453;-78
2023/04/15 11:58:17;;;;;;;14.67;7.40;;;10.50;99.90;;;;;;5007296;28;20418;-77
2023/04/15 12:00:52;;;;;;;7.47;6.33;;;10.60;99.90;;;;;;5006298;28;20971;-77
2023/04/15 12:03:20;;;;;;;6.00;5.47;;;10.60;99.90;;;;;;5012181;28;20491;-78
2023/04/15 12:06:06;;;;;;;9.83;6.27;;;10.70;99.90;;;;;;5000552;28;20420;-78
2023/04/15 12:08:50;;;;;;;6.17;5.53;;;10.70;99.90;;;;;;4992110;28;20415;-78
2023/04/15 12:11:29;;;;;;;7.17;6.33;;;10.70;99.90;;;;;;4992322;28;21011;-78
2023/04/15 12:14:17;;;;;;;6.50;5.73;;;10.70;99.90;;;;;;5008160;28;20417;-78
2023/04/15 12:16:48;;;;;;;9.10;6.27;;;10.70;99.90;;;;;;4992351;28;20644;-78
2023/04/15 12:19:35;;;;;;;6.73;6.07;;;10.70;99.90;;;;;;5001162;28;20576;-77
2023/04/15 12:22:04;;;;;;;6.97;6.17;;;10.70;99.90;;;;;;5003063;28;20426;-76
2023/04/15 12:24:34;;;;;;;7.40;6.33;;;10.70;99.90;;;;;;5027017;28;20426;-76
2023/04/15 12:27:05;;;;;;;7.43;6.73;;;10.70;99.90;;;;;;5010491;28;20422;-77
2023/04/15 12:29:31;;;;;;;6.90;6.20;;;10.70;99.90;;;;;;5011818;28;20438;-77
2023/04/15 12:32:04;;;;;;;6.33;5.73;;;10.70;99.90;;;;;;5011656;28;21143;-78
2023/04/15 12:34:57;;;;;;;6.03;5.43;;;10.70;99.90;;;;;;5011779;28;20475;-78
2023/04/15 12:37:22;;;;;;;6.80;6.10;;;10.60;99.90;;;;;;5008408;28;20430;-78
2023/04/15 12:39:49;;;;;;;5.97;5.47;;;10.70;99.90;;;;;;5002348;28;20482;-78
2023/04/15 12:42:16;;;;;;;6.63;6.03;;;10.70;99.90;;;;;;5003846;28;20194;-78